Temple, Oklahoma
Current Conditions -  °F | °C
As of 2:15 PM on Monday 24 Nov 2014 (Local Time) from KDUC Reporting Station
Clear Clear  
Wind Chill: 59°   Ceiling: Unl
Heat Index: 59°   Visibility: 10mi
Dew Point: 23°   Wind: 12mph
Humidity: 25%   Direction: 320°NW
Pressure: 30.01"   Gusts: 22mph
Location:  34.27°N, 98.24°W
Report Text: KDUC 242015Z AUTO 32010G19KT 10SM CLR 15/M05 A3001 RMK AO2
Loading
Personal Weather Stations






























Interactive Weather Map New forecast layout! Learn more

10-Day Weather Forecast

Advertisements
Track Severe Weather on mobile